Time;durP1;ratioP1;P1;durP2;ratioP2;P2;SDS_P1;SDS_P2;PMS_P1;PMS_P2;Temp;Humidity;BMP_temperature;BMP_pressure;BME280_temperature;BME280_humidity;BME280_pressure;Samples;Min_cycle;Max_cycle;Signal;HPM_P1;HPM_P2
2023/04/25 00:01:51;;;;;;;6.05;1.70;;;;;;;;;;4945681;28;98282;-78
2023/04/25 00:04:17;;;;;;;7.72;1.75;;;;;;;;;;4943865;28;98896;-78
2023/04/25 00:06:44;;;;;;;6.47;1.70;;;;;;;;;;4944147;28;100236;-78
2023/04/25 00:09:11;;;;;;;5.93;1.88;;;;;;;;;;4945499;28;100165;-78
2023/04/25 00:11:37;;;;;;;6.82;1.58;;;;;;;;;;4945347;28;98566;-77
2023/04/25 00:14:04;;;;;;;6.22;1.58;;;;;;;;;;4944961;28;99276;-76
2023/04/25 00:16:33;;;;;;;8.18;1.90;;;;;;;;;;4942870;28;99273;-77
2023/04/25 00:19:01;;;;;;;6.53;1.52;;;;;;;;;;4945367;28;99170;-78
2023/04/25 00:21:28;;;;;;;9.10;1.70;;;;;;;;;;4948158;28;98663;-77
2023/04/25 00:23:55;;;;;;;8.75;1.70;;;;;;;;;;4945695;28;98970;-77
2023/04/25 00:26:21;;;;;;;5.50;1.50;;;;;;;;;;4943942;28;101568;-77
2023/04/25 00:28:48;;;;;;;8.70;2.00;;;;;;;;;;4944020;28;100017;-77
2023/04/25 00:31:14;;;;;;;8.00;2.00;;;;;;;;;;4945538;28;98991;-77
2023/04/25 00:33:41;;;;;;;8.57;1.90;;;;;;;;;;4946500;28;100073;-78
2023/04/25 00:36:08;;;;;;;7.70;1.95;;;;;;;;;;4945431;28;101662;-78
2023/04/25 00:38:34;;;;;;;8.45;1.85;;;;;;;;;;4945822;28;99240;-78
2023/04/25 00:41:01;;;;;;;9.20;2.20;;;;;;;;;;4947226;28;98818;-78
2023/04/25 00:43:27;;;;;;;7.43;2.00;;;;;;;;;;4952421;28;99201;-77
2023/04/25 00:45:57;;;;;;;7.07;1.85;;;;;;;;;;4947559;28;98777;-78
2023/04/25 00:48:23;;;;;;;9.13;2.00;;;;;;;;;;4926573;28;103288;-77
2023/04/25 00:50:56;;;;;;;8.68;2.17;;;;;;;;;;4945114;28;97913;-78
2023/04/25 00:53:24;;;;;;;8.80;2.10;;;;;;;;;;4947152;28;99050;-77
2023/04/25 00:55:50;;;;;;;9.93;2.08;;;;;;;;;;4924773;28;100659;-77
2023/04/25 00:58:17;;;;;;;9.98;2.00;;;;;;;;;;4927162;28;99731;-78
2023/04/25 01:00:46;;;;;;;8.35;2.03;;;;;;;;;;4927261;28;101025;-79
2023/04/25 01:03:15;;;;;;;8.30;2.10;;;;;;;;;;4926385;28;99326;-79
2023/04/25 01:05:43;;;;;;;8.52;2.47;;;;;;;;;;4929903;28;98611;-78
2023/04/25 01:08:09;;;;;;;8.93;2.05;;;;;;;;;;4924538;28;102013;-78
2023/04/25 01:10:36;;;;;;;8.57;2.10;;;;;;;;;;4907954;28;98683;-79
2023/04/25 01:13:06;;;;;;;8.30;2.42;;;;;;;;;;4940706;28;99122;-78
2023/04/25 01:15:32;;;;;;;10.27;2.20;;;;;;;;;;4925876;28;99344;-79
2023/04/25 01:18:00;;;;;;;8.35;2.08;;;;;;;;;;4923002;28;99349;-79
2023/04/25 01:20:28;;;;;;;8.48;2.15;;;;;;;;;;4942391;28;101577;-78
2023/04/25 01:22:55;;;;;;;8.15;1.85;;;;;;;;;;4938136;28;102630;-79
2023/04/25 01:25:22;;;;;;;7.75;2.15;;;;;;;;;;4926821;28;99178;-79
2023/04/25 01:27:49;;;;;;;8.20;2.10;;;;;;;;;;4922476;28;101334;-79
2023/04/25 01:30:15;;;;;;;9.38;1.83;;;;;;;;;;4926100;28;98656;-79
2023/04/25 01:32:42;;;;;;;8.90;1.98;;;;;;;;;;4926181;28;98841;-79
2023/04/25 01:35:10;;;;;;;10.60;2.22;;;;;;;;;;4925884;28;102260;-78
2023/04/25 01:37:36;;;;;;;;;;;;;;;;;;4927982;28;98922;-78
2023/04/25 01:40:05;;;;;;;9.90;2.33;;;;;;;;;;4927495;28;112999;-78
2023/04/25 01:42:32;;;;;;;10.32;2.15;;;;;;;;;;4927364;28;99622;-79
2023/04/25 01:45:00;;;;;;;8.85;2.00;;;;;;;;;;4943775;28;98697;-77
2023/04/25 01:47:26;;;;;;;9.43;2.17;;;;;;;;;;4951944;28;101385;-77
2023/04/25 01:49:53;;;;;;;8.65;2.20;;;;;;;;;;4931077;28;98551;-77
2023/04/25 01:52:20;;;;;;;7.25;2.47;;;;;;;;;;4933207;28;98694;-77
2023/04/25 01:54:47;;;;;;;8.45;1.85;;;;;;;;;;4949051;28;100479;-77
2023/04/25 01:57:14;;;;;;;8.48;2.40;;;;;;;;;;4948918;28;99092;-77
2023/04/25 01:59:43;;;;;;;9.63;2.10;;;;;;;;;;4947026;28;98990;-77
2023/04/25 02:02:20;;;;;;;9.50;2.13;;;;;;;;;;4945163;28;102364;-77
2023/04/25 02:04:46;;;;;;;10.20;2.30;;;;;;;;;;4930898;28;97756;-77
2023/04/25 02:07:14;;;;;;;9.30;2.30;;;;;;;;;;4926541;28;100826;-77
2023/04/25 02:09:49;;;;;;;8.73;2.28;;;;;;;;;;4927409;28;100836;-77
2023/04/25 02:12:18;;;;;;;8.32;2.20;;;;;;;;;;4938200;28;100999;-77
2023/04/25 02:15:03;;;;;;;9.20;2.20;;;;;;;;;;4923737;28;98914;-77
2023/04/25 02:17:39;;;;;;;6.40;2.08;;;;;;;;;;4940028;28;98677;-78
2023/04/25 02:20:07;;;;;;;8.48;2.22;;;;;;;;;;4927627;28;100129;-78
2023/04/25 02:22:35;;;;;;;7.68;2.10;;;;;;;;;;4937791;28;101725;-78
2023/04/25 02:25:04;;;;;;;7.72;2.33;;;;;;;;;;4936412;28;98613;-78
2023/04/25 02:27:31;;;;;;;11.55;2.25;;;;;;;;;;4935003;28;99761;-77
2023/04/25 02:29:57;;;;;;;7.25;2.28;;;;;;;;;;4927389;28;100922;-77
2023/04/25 02:32:24;;;;;;;9.18;2.33;;;;;;;;;;4927408;28;98554;-77
2023/04/25 02:34:51;;;;;;;8.43;2.35;;;;;;;;;;4921321;28;102466;-78
2023/04/25 02:37:18;;;;;;;;;;;;;;;;;;4924964;28;99819;-78
2023/04/25 02:39:45;;;;;;;8.00;2.15;;;;;;;;;;4924717;28;124642;-78
2023/04/25 02:42:11;;;;;;;10.20;2.15;;;;;;;;;;4912989;28;99835;-78
2023/04/25 02:44:38;;;;;;;10.82;2.10;;;;;;;;;;4936566;28;99061;-78
2023/04/25 02:47:04;;;;;;;7.75;2.10;;;;;;;;;;4938588;28;101215;-78
2023/04/25 02:49:31;;;;;;;9.70;2.40;;;;;;;;;;4924102;28;100163;-77
2023/04/25 02:51:57;;;;;;;10.27;2.30;;;;;;;;;;4924220;28;99020;-77
2023/04/25 02:54:24;;;;;;;6.75;1.80;;;;;;;;;;4925062;28;101193;-77
2023/04/25 02:56:50;;;;;;;7.18;2.03;;;;;;;;;;4936911;28;99016;-77
2023/04/25 02:59:22;;;;;;;10.60;2.55;;;;;;;;;;4938268;28;99991;-77
2023/04/25 03:01:49;;;;;;;6.97;2.13;;;;;;;;;;4922662;28;99915;-77
2023/04/25 03:04:16;;;;;;;9.05;1.90;;;;;;;;;;4923373;28;101046;-76
2023/04/25 03:06:42;;;;;;;10.48;2.42;;;;;;;;;;4922510;28;101774;-76
2023/04/25 03:09:09;;;;;;;8.85;1.80;;;;;;;;;;4923570;28;99709;-76
2023/04/25 03:11:37;;;;;;;9.38;2.20;;;;;;;;;;4923650;28;98587;-76
2023/04/25 03:14:03;;;;;;;8.88;2.20;;;;;;;;;;4924899;28;100141;-77
2023/04/25 03:16:30;;;;;;;12.68;2.15;;;;;;;;;;4928126;28;98902;-76
2023/04/25 03:18:57;;;;;;;11.38;2.10;;;;;;;;;;4924205;28;98790;-77
2023/04/25 03:21:23;;;;;;;7.50;1.90;;;;;;;;;;4921749;28;100221;-77
2023/04/25 03:23:50;;;;;;;10.00;2.22;;;;;;;;;;4926263;28;99976;-77
2023/04/25 03:26:17;;;;;;;8.02;2.30;;;;;;;;;;4916217;28;99649;-77
2023/04/25 03:28:44;;;;;;;7.80;2.20;;;;;;;;;;4923359;28;99099;-77
2023/04/25 03:31:11;;;;;;;10.10;2.47;;;;;;;;;;4938158;28;99027;-77
2023/04/25 03:33:38;;;;;;;11.65;2.28;;;;;;;;;;4938275;28;101770;-77
2023/04/25 03:36:05;;;;;;;9.90;2.30;;;;;;;;;;4926529;28;99447;-77
2023/04/25 03:38:31;;;;;;;8.27;2.10;;;;;;;;;;4937838;28;100910;-77
2023/04/25 03:40:58;;;;;;;8.23;2.35;;;;;;;;;;4920905;28;102049;-77
2023/04/25 03:43:35;;;;;;;8.02;2.03;;;;;;;;;;4929999;28;97904;-78
2023/04/25 03:46:06;;;;;;;10.90;2.20;;;;;;;;;;4921546;28;100701;-78
2023/04/25 03:48:32;;;;;;;7.90;2.03;;;;;;;;;;4922513;28;100599;-78
2023/04/25 03:50:59;;;;;;;6.90;1.95;;;;;;;;;;4938088;28;99531;-79
2023/04/25 03:53:26;;;;;;;7.60;2.10;;;;;;;;;;4940868;28;101251;-78
2023/04/25 03:56:21;;;;;;;9.32;2.22;;;;;;;;;;4923308;28;99511;-77
2023/04/25 03:58:56;;;;;;;6.55;2.17;;;;;;;;;;4931227;28;102463;-79
2023/04/25 04:01:25;;;;;;;10.30;2.10;;;;;;;;;;4927734;28;101581;-78
2023/04/25 04:03:51;;;;;;;8.95;2.13;;;;;;;;;;4927990;28;99478;-78
2023/04/25 04:06:20;;;;;;;7.70;2.00;;;;;;;;;;4927087;28;101116;-78
2023/04/25 04:08:52;;;;;;;9.23;2.25;;;;;;;;;;4944438;28;101217;-78
2023/04/25 04:11:18;;;;;;;9.80;2.30;;;;;;;;;;4936402;28;99072;-77
2023/04/25 04:13:45;;;;;;;7.25;2.00;;;;;;;;;;4943646;28;101683;-78
2023/04/25 04:16:11;;;;;;;9.95;2.05;;;;;;;;;;4943093;28;102716;-79
2023/04/25 04:18:38;;;;;;;8.98;2.03;;;;;;;;;;4944092;28;99068;-78
2023/04/25 04:21:05;;;;;;;8.40;1.90;;;;;;;;;;4930830;28;101525;-79
2023/04/25 04:23:34;;;;;;;5.93;1.67;;;;;;;;;;4945753;28;99181;-78
2023/04/25 04:26:03;;;;;;;7.28;1.70;;;;;;;;;;4944138;28;100949;-78
2023/04/25 04:28:59;;;;;;;7.32;1.90;;;;;;;;;;4927743;28;106387;-79
2023/04/25 04:31:42;;;;;;;8.73;1.83;;;;;;;;;;4946319;28;99200;-79
2023/04/25 04:34:10;;;;;;;;;;;;;;;;;;4944626;28;101020;-79
2023/04/25 04:36:37;;;;;;;7.15;1.80;;;;;;;;;;4945124;28;103840;-78
2023/04/25 04:39:05;;;;;;;8.27;2.20;;;;;;;;;;4941424;28;98658;-77
2023/04/25 04:41:40;;;;;;;7.60;2.10;;;;;;;;;;4939373;28;101260;-76
2023/04/25 04:44:10;;;;;;;8.57;1.80;;;;;;;;;;4938298;28;101721;-77
2023/04/25 04:47:05;;;;;;;6.15;1.77;;;;;;;;;;4930384;28;105855;-77
2023/04/25 04:49:55;;;;;;;7.18;1.83;;;;;;;;;;4923803;28;99250;-78
2023/04/25 04:52:42;;;;;;;9.55;1.90;;;;;;;;;;4944270;28;99520;-78
2023/04/25 04:55:41;;;;;;;7.53;1.80;;;;;;;;;;4916287;28;99891;-77
2023/04/25 04:58:21;;;;;;;7.13;1.85;;;;;;;;;;4924945;28;101963;-78
2023/04/25 05:00:57;;;;;;;6.40;1.52;;;;;;;;;;4945806;28;98228;-77
2023/04/25 05:03:42;;;;;;;6.47;1.85;;;;;;;;;;4943119;28;99121;-78
2023/04/25 05:06:21;;;;;;;9.77;1.73;;;;;;;;;;4942420;28;102374;-78
2023/04/25 05:09:14;;;;;;;7.03;1.80;;;;;;;;;;4937695;28;99307;-78
2023/04/25 05:12:13;;;;;;;7.78;1.70;;;;;;;;;;4921354;28;99165;-78
2023/04/25 05:14:58;;;;;;;7.53;1.63;;;;;;;;;;4943897;28;99019;-78
2023/04/25 05:17:33;;;;;;;8.57;1.65;;;;;;;;;;4930417;28;98730;-78
2023/04/25 05:20:10;;;;;;;9.50;1.85;;;;;;;;;;4943126;28;101662;-78
2023/04/25 05:23:01;;;;;;;8.40;1.80;;;;;;;;;;4944073;28;99103;-78
2023/04/25 05:26:00;;;;;;;8.88;1.80;;;;;;;;;;4917216;28;98913;-78
2023/04/25 05:28:44;;;;;;;10.65;1.58;;;;;;;;;;4944118;28;103842;-78
2023/04/25 05:31:29;;;;;;;7.63;1.90;;;;;;;;;;4947711;28;98856;-78
2023/04/25 05:34:06;;;;;;;6.00;1.42;;;;;;;;;;4941202;28;101488;-78
2023/04/25 05:36:53;;;;;;;8.40;1.60;;;;;;;;;;4942660;28;99714;-78
2023/04/25 05:39:19;;;;;;;5.75;1.40;;;;;;;;;;4942356;28;102067;-79
2023/04/25 05:42:04;;;;;;;7.90;1.70;;;;;;;;;;4943365;28;99205;-79
2023/04/25 05:44:52;;;;;;;7.68;1.77;;;;;;;;;;4942905;28;99110;-79
2023/04/25 05:47:41;;;;;;;5.22;1.52;;;;;;;;;;4944573;28;99864;-79
2023/04/25 05:50:19;;;;;;;7.00;1.55;;;;;;;;;;4925222;28;101942;-79
2023/04/25 05:52:54;;;;;;;5.40;1.38;;;;;;;;;;4942912;28;98963;-79
2023/04/25 05:55:40;;;;;;;6.28;1.67;;;;;;;;;;4947612;28;98490;-80
2023/04/25 05:58:20;;;;;;;6.72;1.60;;;;;;;;;;4927107;28;99130;-78
2023/04/25 06:00:47;;;;;;;3.67;1.27;;;;;;;;;;4926398;28;100780;-78
2023/04/25 06:03:17;;;;;;;4.68;1.33;;;;;;;;;;4926118;28;102340;-80
2023/04/25 06:05:46;;;;;;;13.02;1.73;;;;;;;;;;4944439;28;99204;-80
2023/04/25 06:08:13;;;;;;;7.53;1.55;;;;;;;;;;4942381;28;100648;-79
2023/04/25 06:10:40;;;;;;;5.47;1.42;;;;;;;;;;4944751;28;99052;-80
2023/04/25 06:13:06;;;;;;;5.70;1.42;;;;;;;;;;4945615;28;98861;-80
2023/04/25 06:15:34;;;;;;;5.47;1.45;;;;;;;;;;4911012;28;101413;-80
2023/04/25 06:18:01;;;;;;;6.40;1.60;;;;;;;;;;4947538;28;99144;-80
2023/04/25 06:20:28;;;;;;;4.82;1.33;;;;;;;;;;4944097;28;99032;-80
2023/04/25 06:22:57;;;;;;;7.93;1.60;;;;;;;;;;4926596;28;101976;-79
2023/04/25 06:25:56;;;;;;;7.45;1.55;;;;;;;;;;4942431;28;101336;-80
2023/04/25 06:28:24;;;;;;;5.40;1.30;;;;;;;;;;4942464;28;101224;-80
2023/04/25 06:30:50;;;;;;;6.25;1.60;;;;;;;;;;4942501;28;100574;-80
2023/04/25 06:33:20;;;;;;;4.50;1.33;;;;;;;;;;4926208;28;98659;-80
2023/04/25 06:35:47;;;;;;;5.53;1.50;;;;;;;;;;4931219;28;101446;-78
2023/04/25 06:38:17;;;;;;;5.53;1.30;;;;;;;;;;4944346;28;100189;-77
2023/04/25 06:40:47;;;;;;;5.47;1.35;;;;;;;;;;4947922;28;99527;-78
2023/04/25 06:43:15;;;;;;;;;;;;;;;;;;4928763;28;101711;-78
2023/04/25 06:46:00;;;;;;;4.50;1.20;;;;;;;;;;4948158;28;98230;-76
2023/04/25 06:48:29;;;;;;;5.70;1.58;;;;;;;;;;4926440;28;99284;-77
2023/04/25 06:50:56;;;;;;;4.60;1.30;;;;;;;;;;4945513;28;98786;-77
2023/04/25 06:53:23;;;;;;;6.85;1.50;;;;;;;;;;4910192;28;99302;-77
2023/04/25 06:55:56;;;;;;;8.90;1.50;;;;;;;;;;4948913;28;101863;-79
2023/04/25 06:58:26;;;;;;;7.53;1.48;;;;;;;;;;4953129;28;101630;-80
2023/04/25 07:00:52;;;;;;;6.10;1.40;;;;;;;;;;4943650;28;98602;-82
2023/04/25 07:03:21;;;;;;;8.07;1.40;;;;;;;;;;4945386;28;101073;-83
2023/04/25 07:05:50;;;;;;;5.68;1.10;;;;;;;;;;4941404;28;99058;-83
2023/04/25 07:08:17;;;;;;;5.43;1.10;;;;;;;;;;4924825;28;101555;-84
2023/04/25 07:10:45;;;;;;;8.82;1.10;;;;;;;;;;4925521;28;101216;-84
2023/04/25 07:13:15;;;;;;;5.30;1.42;;;;;;;;;;4948458;28;98579;-83
2023/04/25 07:15:42;;;;;;;5.03;1.20;;;;;;;;;;4941767;28;101494;-85
2023/04/25 07:18:08;;;;;;;5.53;1.35;;;;;;;;;;4928656;28;102809;-83
2023/04/25 07:20:35;;;;;;;6.13;1.10;;;;;;;;;;4940583;28;99184;-86
2023/04/25 07:23:02;;;;;;;7.18;1.38;;;;;;;;;;4941970;28;99820;-88
2023/04/25 07:25:30;;;;;;;5.03;1.17;;;;;;;;;;4929458;28;101662;-87
2023/04/25 07:27:56;;;;;;;6.22;1.40;;;;;;;;;;4946335;28;101471;-86
2023/04/25 07:30:23;;;;;;;6.25;1.40;;;;;;;;;;4943807;28;101781;-85
2023/04/25 07:32:50;;;;;;;5.78;1.30;;;;;;;;;;4947502;28;99345;-83
2023/04/25 07:35:17;;;;;;;9.27;1.50;;;;;;;;;;4930250;28;101428;-84
2023/04/25 07:37:43;;;;;;;6.55;1.25;;;;;;;;;;4929831;28;102201;-84
2023/04/25 07:40:16;;;;;;;4.93;1.10;;;;;;;;;;4943511;28;98761;-85
2023/04/25 07:42:50;;;;;;;16.90;1.85;;;;;;;;;;4925946;28;100155;-85
2023/04/25 07:45:23;;;;;;;15.60;1.50;;;;;;;;;;4940391;28;101327;-84
2023/04/25 07:47:51;;;;;;;10.27;1.30;;;;;;;;;;4941350;28;101086;-84
2023/04/25 07:50:17;;;;;;;10.30;1.48;;;;;;;;;;4942869;28;101748;-84
2023/04/25 07:52:45;;;;;;;13.25;1.33;;;;;;;;;;4927312;28;98891;-83
2023/04/25 07:55:19;;;;;;;6.80;1.40;;;;;;;;;;4927439;28;101791;-82
2023/04/25 07:58:12;;;;;;;6.50;1.40;;;;;;;;;;4941562;28;99399;-83
2023/04/25 08:00:42;;;;;;;7.10;1.33;;;;;;;;;;4945231;28;97932;-83
2023/04/25 08:03:24;;;;;;;6.47;1.40;;;;;;;;;;4925134;28;98706;-83
2023/04/25 08:05:52;;;;;;;6.30;1.42;;;;;;;;;;4928027;28;101528;-83
2023/04/25 08:08:19;;;;;;;7.50;1.30;;;;;;;;;;4945568;28;99419;-84
2023/04/25 08:10:47;;;;;;;8.32;1.58;;;;;;;;;;4943046;28;101467;-83
2023/04/25 08:13:15;;;;;;;9.82;1.55;;;;;;;;;;4911640;28;98682;-82
2023/04/25 08:15:43;;;;;;;7.57;1.30;;;;;;;;;;4946834;28;101178;-84
2023/04/25 08:18:10;;;;;;;6.68;1.48;;;;;;;;;;4951545;28;99801;-84
2023/04/25 08:20:37;;;;;;;6.00;1.30;;;;;;;;;;4927471;28;99185;-83
2023/04/25 08:23:06;;;;;;;6.13;1.35;;;;;;;;;;4942592;28;100877;-83
2023/04/25 08:26:02;;;;;;;3.95;1.38;;;;;;;;;;4940775;28;99319;-84
2023/04/25 08:28:30;;;;;;;6.35;1.38;;;;;;;;;;4952873;28;98622;-83
2023/04/25 08:30:59;;;;;;;8.02;1.42;;;;;;;;;;4933679;28;101731;-85
2023/04/25 08:33:33;;;;;;;7.30;1.40;;;;;;;;;;4943831;28;99459;-83
2023/04/25 08:36:17;;;;;;;5.90;1.25;;;;;;;;;;4944719;28;102081;-83
2023/04/25 08:39:03;;;;;;;5.50;1.20;;;;;;;;;;4936274;28;101656;-84
2023/04/25 08:41:36;;;;;;;5.55;1.08;;;;;;;;;;4927205;28;98900;-84
2023/04/25 08:44:05;;;;;;;4.80;1.30;;;;;;;;;;4927767;28;101558;-84
2023/04/25 08:46:32;;;;;;;5.47;1.35;;;;;;;;;;4943453;28;99942;-83
2023/04/25 08:49:16;;;;;;;5.85;1.20;;;;;;;;;;4926820;28;99804;-83
2023/04/25 08:51:47;;;;;;;4.50;1.05;;;;;;;;;;4945851;28;98793;-82
2023/04/25 08:54:15;;;;;;;2.92;1.02;;;;;;;;;;4944833;28;100118;-83
2023/04/25 08:57:02;;;;;;;5.00;1.02;;;;;;;;;;4927078;28;101378;-82
2023/04/25 08:59:28;;;;;;;;;;;;;;;;;;4943734;28;100191;-83
2023/04/25 09:01:55;;;;;;;6.82;1.10;;;;;;;;;;4944231;28;99041;-83
2023/04/25 09:04:22;;;;;;;4.80;0.98;;;;;;;;;;4927545;28;102134;-84
2023/04/25 09:06:48;;;;;;;5.65;1.10;;;;;;;;;;4945754;28;100630;-83
2023/04/25 09:09:15;;;;;;;4.15;1.17;;;;;;;;;;4947511;28;98649;-82
2023/04/25 09:11:43;;;;;;;6.25;1.30;;;;;;;;;;4950557;28;98596;-84
2023/04/25 09:14:13;;;;;;;4.82;1.20;;;;;;;;;;4914906;28;101494;-84
2023/04/25 09:16:54;;;;;;;4.40;1.00;;;;;;;;;;4961775;28;98267;-85
2023/04/25 09:19:40;;;;;;;3.92;1.17;;;;;;;;;;4957071;28;100596;-84
2023/04/25 09:22:18;;;;;;;5.93;1.08;;;;;;;;;;4946476;28;99060;-84
2023/04/25 09:24:48;;;;;;;4.05;1.10;;;;;;;;;;4959537;28;99952;-87
2023/04/25 09:27:22;;;;;;;13.23;1.25;;;;;;;;;;4961106;28;100779;-86
2023/04/25 09:29:58;;;;;;;7.72;1.10;;;;;;;;;;4963431;28;98492;-86
2023/04/25 09:32:25;;;;;;;6.30;0.90;;;;;;;;;;4964742;28;98807;-85
2023/04/25 09:34:56;;;;;;;3.28;0.90;;;;;;;;;;4966704;28;101265;-86
2023/04/25 09:37:24;;;;;;;6.55;0.90;;;;;;;;;;4948325;28;98505;-85
2023/04/25 09:40:10;;;;;;;6.05;1.00;;;;;;;;;;4963086;28;98600;-85
2023/04/25 09:42:58;;;;;;;5.45;1.15;;;;;;;;;;4956040;28;98237;-85
2023/04/25 09:45:25;;;;;;;6.72;1.00;;;;;;;;;;4942081;28;99383;-86
2023/04/25 09:47:56;;;;;;;4.63;1.30;;;;;;;;;;4935817;28;101708;-84
2023/04/25 09:50:27;;;;;;;3.72;1.02;;;;;;;;;;4926297;28;99559;-82
2023/04/25 09:53:04;;;;;;;4.63;1.10;;;;;;;;;;4931938;28;101755;-83
2023/04/25 09:55:48;;;;;;;6.18;1.10;;;;;;;;;;4948649;28;101319;-85
2023/04/25 09:58:14;;;;;;;5.20;1.23;;;;;;;;;;4943484;28;98627;-82
2023/04/25 10:00:41;;;;;;;7.68;1.35;;;;;;;;;;4944942;28;101849;-82
2023/04/25 10:03:22;;;;;;;3.70;0.90;;;;;;;;;;4942423;28;98991;-83
2023/04/25 10:06:00;;;;;;;3.28;0.90;;;;;;;;;;4929181;28;101499;-83
2023/04/25 10:08:34;;;;;;;3.92;0.90;;;;;;;;;;4944638;28;99117;-84
2023/04/25 10:11:03;;;;;;;5.55;1.02;;;;;;;;;;4942375;28;99056;-83
2023/04/25 10:13:30;;;;;;;3.83;1.05;;;;;;;;;;4944712;28;98699;-85
2023/04/25 10:15:58;;;;;;;4.82;0.95;;;;;;;;;;4943596;28;99740;-79
2023/04/25 10:18:25;;;;;;;4.72;1.00;;;;;;;;;;4943420;28;99287;-85
2023/04/25 10:20:54;;;;;;;4.30;1.17;;;;;;;;;;4944418;28;98509;-82
2023/04/25 10:23:21;;;;;;;10.38;1.45;;;;;;;;;;4946153;28;99863;-82
2023/04/25 10:25:47;;;;;;;4.10;1.00;;;;;;;;;;4943648;28;98981;-82
2023/04/25 10:28:14;;;;;;;5.88;1.08;;;;;;;;;;4942064;28;99382;-81
2023/04/25 10:30:56;;;;;;;6.90;1.25;;;;;;;;;;4942311;28;99088;-81
2023/04/25 10:33:31;;;;;;;4.18;1.17;;;;;;;;;;4944014;28;98852;-82
2023/04/25 10:35:58;;;;;;;5.43;1.20;;;;;;;;;;4941459;28;99403;-82
2023/04/25 10:38:25;;;;;;;6.00;1.77;;;;;;;;;;4939414;28;99124;-81
2023/04/25 10:41:05;;;;;;;5.53;1.50;;;;;;;;;;4940235;28;101872;-81
2023/04/25 10:43:39;;;;;;;4.57;1.80;;;;;;;;;;4942333;28;99169;-82
2023/04/25 10:46:15;;;;;;;4.82;1.70;;;;;;;;;;4945061;28;99303;-82
2023/04/25 10:48:47;;;;;;;6.82;1.83;;;;;;;;;;4939903;28;105670;-81
2023/04/25 10:51:31;;;;;;;4.68;1.50;;;;;;;;;;4942100;28;99104;-82
2023/04/25 10:54:19;;;;;;;4.85;1.50;;;;;;;;;;4946165;28;98810;-81
2023/04/25 10:56:48;;;;;;;4.05;1.60;;;;;;;;;;4944195;28;99168;-81
2023/04/25 10:59:16;;;;;;;4.55;1.65;;;;;;;;;;4925691;28;98519;-80
2023/04/25 11:01:46;;;;;;;6.57;1.65;;;;;;;;;;4929142;28;99021;-79
2023/04/25 11:04:23;;;;;;;4.95;1.60;;;;;;;;;;4945216;28;99391;-80
2023/04/25 11:07:01;;;;;;;5.10;1.60;;;;;;;;;;4927142;28;100020;-80
2023/04/25 11:09:33;;;;;;;5.03;1.70;;;;;;;;;;4949612;28;99687;-79
2023/04/25 11:12:00;;;;;;;4.40;1.67;;;;;;;;;;4945842;28;99378;-80
2023/04/25 11:14:27;;;;;;;4.75;1.63;;;;;;;;;;4943965;28;98999;-80
2023/04/25 11:16:55;;;;;;;5.57;1.85;;;;;;;;;;4924264;28;102090;-80
2023/04/25 11:19:25;;;;;;;4.57;1.50;;;;;;;;;;4938642;28;99097;-80
2023/04/25 11:21:55;;;;;;;5.90;1.67;;;;;;;;;;4944406;28;98868;-80
2023/04/25 11:24:28;;;;;;;4.05;1.45;;;;;;;;;;4945744;28;98622;-79
2023/04/25 11:26:55;;;;;;;4.47;1.60;;;;;;;;;;4945967;28;99096;-79
2023/04/25 11:29:22;;;;;;;4.20;1.52;;;;;;;;;;4945948;28;99020;-79
2023/04/25 11:31:49;;;;;;;4.18;1.40;;;;;;;;;;4946673;28;100186;-80
2023/04/25 11:34:18;;;;;;;3.05;1.25;;;;;;;;;;4945485;28;99694;-78
2023/04/25 11:36:45;;;;;;;3.65;1.30;;;;;;;;;;4945329;28;100216;-79
2023/04/25 11:39:12;;;;;;;3.88;1.30;;;;;;;;;;4928352;28;99153;-79
2023/04/25 11:41:38;;;;;;;3.55;1.42;;;;;;;;;;4943477;28;100303;-80
2023/04/25 11:44:07;;;;;;;4.93;1.60;;;;;;;;;;4944778;28;99581;-80
2023/04/25 11:46:34;;;;;;;3.45;1.30;;;;;;;;;;4944774;28;99090;-79
2023/04/25 11:49:01;;;;;;;3.53;1.30;;;;;;;;;;4942098;28;100623;-80
2023/04/25 11:51:28;;;;;;;2.92;1.20;;;;;;;;;;4945139;28;99174;-80
2023/04/25 11:53:54;;;;;;;3.33;1.25;;;;;;;;;;4948332;28;98766;-80
2023/04/25 11:56:22;;;;;;;3.42;1.20;;;;;;;;;;4943115;28;99893;-79
2023/04/25 11:58:54;;;;;;;4.63;1.40;;;;;;;;;;4945646;28;98619;-81
2023/04/25 12:01:30;;;;;;;4.70;1.58;;;;;;;;;;4947828;28;99249;-81
2023/04/25 12:04:17;;;;;;;3.90;1.30;;;;;;;;;;4945592;28;98971;-81
2023/04/25 12:06:50;;;;;;;3.35;1.25;;;;;;;;;;4945983;28;98812;-81
2023/04/25 12:09:21;;;;;;;4.28;1.40;;;;;;;;;;4941530;28;99417;-79
2023/04/25 12:11:48;;;;;;;3.97;1.38;;;;;;;;;;4941091;28;99050;-81
2023/04/25 12:14:15;;;;;;;;;;;;;;;;;;4939550;28;98578;-81
2023/04/25 12:16:45;;;;;;;6.65;1.40;;;;;;;;;;4940657;28;100061;-81
2023/04/25 12:19:15;;;;;;;4.75;1.40;;;;;;;;;;4945797;28;99007;-79
2023/04/25 12:21:42;;;;;;;5.32;1.50;;;;;;;;;;4939983;28;101819;-80
2023/04/25 12:24:25;;;;;;;4.65;1.40;;;;;;;;;;4934962;28;99386;-80
2023/04/25 12:26:59;;;;;;;4.18;1.13;;;;;;;;;;4944467;28;99010;-80
2023/04/25 12:29:27;;;;;;;3.80;1.10;;;;;;;;;;4944592;28;101217;-79
2023/04/25 12:32:01;;;;;;;4.97;1.30;;;;;;;;;;4946148;28;99298;-79
2023/04/25 12:34:28;;;;;;;4.22;1.17;;;;;;;;;;4946241;28;99090;-79
2023/04/25 12:36:55;;;;;;;4.13;1.20;;;;;;;;;;4950742;28;98858;-79
2023/04/25 12:39:22;;;;;;;4.25;1.30;;;;;;;;;;4945000;28;98866;-81
2023/04/25 12:41:53;;;;;;;5.28;1.50;;;;;;;;;;4948919;28;98906;-79
2023/04/25 12:44:20;;;;;;;3.60;1.20;;;;;;;;;;4945256;28;100040;-79
2023/04/25 12:46:47;;;;;;;3.22;1.08;;;;;;;;;;4937886;28;101174;-79
2023/04/25 12:49:13;;;;;;;5.72;1.10;;;;;;;;;;4922007;28;101153;-81
2023/04/25 12:52:00;;;;;;;5.95;1.13;;;;;;;;;;4948497;28;99196;-80
2023/04/25 12:54:26;;;;;;;5.05;1.30;;;;;;;;;;4945670;28;98518;-81
2023/04/25 12:56:53;;;;;;;3.20;1.10;;;;;;;;;;4934413;28;99516;-80
2023/04/25 12:59:21;;;;;;;5.00;1.25;;;;;;;;;;4947361;28;100348;-80
2023/04/25 13:01:47;;;;;;;3.60;0.98;;;;;;;;;;4947997;28;99880;-80
2023/04/25 13:04:14;;;;;;;3.05;1.20;;;;;;;;;;4945346;28;98531;-78
2023/04/25 13:06:42;;;;;;;5.57;1.20;;;;;;;;;;4931617;28;99003;-78
2023/04/25 13:09:08;;;;;;;2.33;1.00;;;;;;;;;;4947330;28;98924;-80
2023/04/25 13:11:35;;;;;;;2.92;1.08;;;;;;;;;;4945116;28;99890;-80
2023/04/25 13:14:02;;;;;;;2.83;1.00;;;;;;;;;;4945976;28;99102;-78
2023/04/25 13:16:28;;;;;;;4.60;1.20;;;;;;;;;;4942690;28;98930;-78
2023/04/25 13:18:56;;;;;;;4.85;1.10;;;;;;;;;;4943342;28;99196;-81
2023/04/25 13:21:23;;;;;;;5.60;1.10;;;;;;;;;;4946281;28;99189;-79
2023/04/25 13:23:49;;;;;;;2.67;1.00;;;;;;;;;;4942155;28;99755;-79
2023/04/25 13:26:17;;;;;;;4.38;1.00;;;;;;;;;;4944218;28;99349;-79
2023/04/25 13:28:43;;;;;;;2.17;1.00;;;;;;;;;;4944424;28;99670;-80
2023/04/25 13:31:10;;;;;;;2.10;0.93;;;;;;;;;;4940750;28;101529;-79
2023/04/25 13:33:37;;;;;;;2.92;0.90;;;;;;;;;;4943569;28;99349;-79
2023/04/25 13:36:03;;;;;;;3.10;1.08;;;;;;;;;;4941227;28;100233;-79
2023/04/25 13:38:30;;;;;;;3.08;1.15;;;;;;;;;;4931204;28;99636;-79
2023/04/25 13:40:57;;;;;;;4.13;1.02;;;;;;;;;;4942227;28;98942;-78
2023/04/25 13:43:23;;;;;;;2.17;1.00;;;;;;;;;;4947202;28;98844;-80
2023/04/25 13:45:50;;;;;;;2.60;1.00;;;;;;;;;;4926098;28;99113;-79
2023/04/25 13:48:17;;;;;;;1.95;0.90;;;;;;;;;;4943979;28;99066;-78
2023/04/25 13:50:44;;;;;;;2.25;0.82;;;;;;;;;;4943759;28;100157;-78
2023/04/25 13:53:11;;;;;;;3.25;0.95;;;;;;;;;;4943883;28;98370;-79
2023/04/25 13:55:38;;;;;;;1.65;0.90;;;;;;;;;;4944701;28;99215;-79
2023/04/25 13:58:09;;;;;;;2.13;0.88;;;;;;;;;;4942983;28;100534;-79
2023/04/25 14:00:43;;;;;;;2.03;0.80;;;;;;;;;;4943618;28;99478;-80
2023/04/25 14:03:09;;;;;;;1.65;0.70;;;;;;;;;;4944158;28;100793;-80
2023/04/25 14:05:39;;;;;;;3.63;1.00;;;;;;;;;;4943602;28;98582;-80
2023/04/25 14:08:07;;;;;;;1.85;0.70;;;;;;;;;;4944320;28;99904;-80
2023/04/25 14:10:34;;;;;;;2.65;0.70;;;;;;;;;;4941953;28;99182;-78
2023/04/25 14:13:02;;;;;;;;;;;;;;;;;;4944255;28;99116;-80
2023/04/25 14:15:30;;;;;;;2.75;0.90;;;;;;;;;;4945023;28;100118;-78
2023/04/25 14:17:57;;;;;;;2.53;0.90;;;;;;;;;;4943957;28;98298;-81
2023/04/25 14:20:24;;;;;;;1.98;0.80;;;;;;;;;;4942706;28;98646;-78
2023/04/25 14:22:51;;;;;;;3.15;0.90;;;;;;;;;;4943392;28;98810;-78
2023/04/25 14:25:18;;;;;;;2.95;0.90;;;;;;;;;;4946319;28;99924;-78
2023/04/25 14:27:49;;;;;;;2.20;0.80;;;;;;;;;;4941631;28;102198;-78
2023/04/25 14:30:16;;;;;;;2.38;0.90;;;;;;;;;;4940274;28;99887;-78
2023/04/25 14:32:43;;;;;;;2.42;0.90;;;;;;;;;;4925731;28;99003;-78
2023/04/25 14:35:10;;;;;;;3.17;1.00;;;;;;;;;;4941527;28;100299;-81
2023/04/25 14:37:37;;;;;;;3.05;1.00;;;;;;;;;;4943021;28;100806;-81
2023/04/25 14:40:05;;;;;;;1.88;0.95;;;;;;;;;;4942736;28;99268;-81
2023/04/25 14:42:32;;;;;;;1.92;0.80;;;;;;;;;;4944802;28;99386;-80
2023/04/25 14:44:59;;;;;;;1.95;0.90;;;;;;;;;;4942737;28;100565;-78
2023/04/25 14:47:25;;;;;;;2.55;0.80;;;;;;;;;;4947271;28;98540;-79
2023/04/25 14:49:53;;;;;;;1.95;0.82;;;;;;;;;;4942211;28;99924;-79
2023/04/25 14:52:20;;;;;;;1.48;0.70;;;;;;;;;;4941861;28;98965;-79
2023/04/25 14:54:47;;;;;;;1.58;0.85;;;;;;;;;;4925530;28;98912;-79
2023/04/25 14:57:14;;;;;;;2.90;0.90;;;;;;;;;;4942169;28;100103;-79
2023/04/25 14:59:41;;;;;;;2.67;0.80;;;;;;;;;;4943053;28;99660;-78